sensor_id;sensor_type;location;lat;lon;timestamp;pressure;altitude;pressure_sealevel;temperature;humidity
43814;BME280;29669;55.706;37.656;2023-03-16T00:01:04;99611.41;;;5.28;nan
43814;BME280;29669;55.706;37.656;2023-03-16T00:03:32;99604.91;;;5.24;nan
43814;BME280;29669;55.706;37.656;2023-03-16T00:06:01;99601.50;;;5.23;nan
43814;BME280;29669;55.706;37.656;2023-03-16T00:08:28;99609.78;;;5.27;nan
43814;BME280;29669;55.706;37.656;2023-03-16T00:10:57;99596.09;;;5.26;nan
43814;BME280;29669;55.706;37.656;2023-03-16T00:13:24;99601.22;;;5.26;nan
43814;BME280;29669;55.706;37.656;2023-03-16T00:15:54;99593.50;;;5.26;nan
43814;BME280;29669;55.706;37.656;2023-03-16T00:18:24;99585.13;;;5.24;nan
43814;BME280;29669;55.706;37.656;2023-03-16T00:20:55;99576.75;;;5.22;nan
43814;BME280;29669;55.706;37.656;2023-03-16T00:23:25;99570.47;;;5.15;nan
43814;BME280;29669;55.706;37.656;2023-03-16T00:25:55;99570.22;;;5.18;nan
43814;BME280;29669;55.706;37.656;2023-03-16T00:28:27;99559.53;;;5.23;nan
43814;BME280;29669;55.706;37.656;2023-03-16T00:30:55;99579.72;;;5.27;nan
43814;BME280;29669;55.706;37.656;2023-03-16T00:33:26;99586.22;;;5.22;nan
43814;BME280;29669;55.706;37.656;2023-03-16T00:35:54;99584.16;;;5.16;nan
43814;BME280;29669;55.706;37.656;2023-03-16T00:38:34;99587.81;;;5.13;nan
43814;BME280;29669;55.706;37.656;2023-03-16T00:41:04;99589.16;;;5.08;nan
43814;BME280;29669;55.706;37.656;2023-03-16T00:43:35;99587.78;;;5.04;nan
43814;BME280;29669;55.706;37.656;2023-03-16T00:46:13;99585.78;;;4.98;nan
43814;BME280;29669;55.706;37.656;2023-03-16T00:48:45;99586.84;;;4.95;nan
43814;BME280;29669;55.706;37.656;2023-03-16T00:51:15;99589.94;;;4.89;nan
43814;BME280;29669;55.706;37.656;2023-03-16T00:53:44;99591.56;;;4.90;nan
43814;BME280;29669;55.706;37.656;2023-03-16T00:56:18;99587.22;;;4.91;nan
43814;BME280;29669;55.706;37.656;2023-03-16T00:58:47;99581.53;;;4.87;nan
43814;BME280;29669;55.706;37.656;2023-03-16T01:01:18;99588.19;;;4.90;nan
43814;BME280;29669;55.706;37.656;2023-03-16T01:03:47;99589.00;;;4.90;nan
43814;BME280;29669;55.706;37.656;2023-03-16T01:06:17;99577.75;;;4.91;nan
43814;BME280;29669;55.706;37.656;2023-03-16T01:08:48;99590.78;;;4.99;nan
43814;BME280;29669;55.706;37.656;2023-03-16T01:11:18;99584.28;;;5.05;nan
43814;BME280;29669;55.706;37.656;2023-03-16T01:13:47;99580.47;;;4.99;nan
43814;BME280;29669;55.706;37.656;2023-03-16T01:16:19;99594.03;;;5.01;nan
43814;BME280;29669;55.706;37.656;2023-03-16T01:18:48;99588.88;;;5.01;nan
43814;BME280;29669;55.706;37.656;2023-03-16T01:21:16;99590.50;;;5.02;nan
43814;BME280;29669;55.706;37.656;2023-03-16T01:23:44;99587.53;;;5.07;nan
43814;BME280;29669;55.706;37.656;2023-03-16T01:26:16;99585.34;;;5.02;nan
43814;BME280;29669;55.706;37.656;2023-03-16T01:28:47;99589.97;;;5.08;nan
43814;BME280;29669;55.706;37.656;2023-03-16T01:31:16;99589.69;;;5.11;nan
43814;BME280;29669;55.706;37.656;2023-03-16T01:33:44;99594.31;;;5.17;nan
43814;BME280;29669;55.706;37.656;2023-03-16T01:36:20;99586.75;;;5.16;nan
43814;BME280;29669;55.706;37.656;2023-03-16T01:38:57;99590.28;;;5.15;nan
43814;BME280;29669;55.706;37.656;2023-03-16T01:41:30;99603.69;;;5.18;nan
43814;BME280;29669;55.706;37.656;2023-03-16T01:43:58;99589.44;;;5.14;nan
43814;BME280;29669;55.706;37.656;2023-03-16T01:46:29;99587.56;;;5.16;nan
43814;BME280;29669;55.706;37.656;2023-03-16T01:49:33;99587.97;;;5.21;nan
43814;BME280;29669;55.706;37.656;2023-03-16T01:52:13;99588.66;;;5.23;nan
43814;BME280;29669;55.706;37.656;2023-03-16T01:54:55;99585.38;;;5.21;nan
43814;BME280;29669;55.706;37.656;2023-03-16T01:57:28;99583.50;;;5.23;nan
43814;BME280;29669;55.706;37.656;2023-03-16T02:00:09;99593.25;;;5.29;nan
43814;BME280;29669;55.706;37.656;2023-03-16T02:03:05;99593.50;;;5.26;nan
43814;BME280;29669;55.706;37.656;2023-03-16T02:08:15;99583.50;;;5.23;nan
43814;BME280;29669;55.706;37.656;2023-03-16T02:10:50;99584.88;;;5.27;nan
43814;BME280;29669;55.706;37.656;2023-03-16T02:13:27;99593.13;;;5.31;nan
43814;BME280;29669;55.706;37.656;2023-03-16T02:15:59;99595.56;;;5.32;nan
43814;BME280;29669;55.706;37.656;2023-03-16T02:18:31;99596.75;;;5.28;nan
43814;BME280;29669;55.706;37.656;2023-03-16T02:21:19;99596.53;;;5.31;nan
43814;BME280;29669;55.706;37.656;2023-03-16T02:23:52;99590.53;;;5.21;nan
43814;BME280;29669;55.706;37.656;2023-03-16T02:29:25;99585.13;;;5.24;nan
43814;BME280;29669;55.706;37.656;2023-03-16T02:31:58;99578.50;;;5.22;nan
43814;BME280;29669;55.706;37.656;2023-03-16T02:34:30;99586.63;;;5.27;nan
43814;BME280;29669;55.706;37.656;2023-03-16T02:37:02;99587.03;;;5.32;nan
43814;BME280;29669;55.706;37.656;2023-03-16T02:39:31;99589.19;;;5.36;nan
43814;BME280;29669;55.706;37.656;2023-03-16T02:42:00;99584.59;;;5.30;nan
43814;BME280;29669;55.706;37.656;2023-03-16T02:44:36;99568.91;;;5.33;nan
43814;BME280;29669;55.706;37.656;2023-03-16T02:47:18;99561.97;;;5.34;nan
43814;BME280;29669;55.706;37.656;2023-03-16T02:49:52;99560.59;;;5.39;nan
43814;BME280;29669;55.706;37.656;2023-03-16T02:52:20;99556.28;;;5.40;nan
43814;BME280;29669;55.706;37.656;2023-03-16T02:54:48;99557.78;;;5.42;nan
43814;BME280;29669;55.706;37.656;2023-03-16T02:57:17;99564.53;;;5.43;nan
43814;BME280;29669;55.706;37.656;2023-03-16T02:59:49;99565.22;;;5.45;nan
43814;BME280;29669;55.706;37.656;2023-03-16T03:02:18;99569.97;;;5.40;nan
43814;BME280;29669;55.706;37.656;2023-03-16T03:04:46;99574.84;;;5.43;nan
43814;BME280;29669;55.706;37.656;2023-03-16T03:07:17;99567.69;;;5.37;nan
43814;BME280;29669;55.706;37.656;2023-03-16T03:09:59;99574.72;;;5.45;nan
43814;BME280;29669;55.706;37.656;2023-03-16T03:12:33;99560.22;;;5.44;nan
43814;BME280;29669;55.706;37.656;2023-03-16T03:15:07;99569.16;;;5.49;nan
43814;BME280;29669;55.706;37.656;2023-03-16T03:17:50;99574.31;;;5.49;nan
43814;BME280;29669;55.706;37.656;2023-03-16T03:20:18;99567.53;;;5.48;nan
43814;BME280;29669;55.706;37.656;2023-03-16T03:22:48;99561.44;;;5.49;nan
43814;BME280;29669;55.706;37.656;2023-03-16T03:25:18;99561.03;;;5.54;nan
43814;BME280;29669;55.706;37.656;2023-03-16T03:27:48;99571.19;;;5.55;nan
43814;BME280;29669;55.706;37.656;2023-03-16T03:30:21;99560.50;;;5.60;nan
43814;BME280;29669;55.706;37.656;2023-03-16T03:32:51;99552.22;;;5.56;nan
43814;BME280;29669;55.706;37.656;2023-03-16T03:35:21;99551.28;;;5.57;nan
43814;BME280;29669;55.706;37.656;2023-03-16T03:37:49;99542.06;;;5.55;nan
43814;BME280;29669;55.706;37.656;2023-03-16T03:40:19;99542.88;;;5.55;nan
43814;BME280;29669;55.706;37.656;2023-03-16T03:42:55;99544.78;;;5.53;nan
43814;BME280;29669;55.706;37.656;2023-03-16T03:45:28;99542.72;;;5.47;nan
43814;BME280;29669;55.706;37.656;2023-03-16T03:47:56;99533.25;;;5.38;nan
43814;BME280;29669;55.706;37.656;2023-03-16T03:50:24;99553.47;;;5.33;nan
43814;BME280;29669;55.706;37.656;2023-03-16T03:53:15;99549.38;;;5.21;nan
43814;BME280;29669;55.706;37.656;2023-03-16T03:56:07;99543.94;;;5.05;nan
43814;BME280;29669;55.706;37.656;2023-03-16T03:58:43;99548.94;;;4.97;nan
43814;BME280;29669;55.706;37.656;2023-03-16T04:01:14;99540.00;;;4.92;nan
43814;BME280;29669;55.706;37.656;2023-03-16T04:03:43;99557.19;;;4.91;nan
43814;BME280;29669;55.706;37.656;2023-03-16T04:06:15;99560.72;;;4.90;nan
43814;BME280;29669;55.706;37.656;2023-03-16T04:08:49;99565.72;;;4.92;nan
43814;BME280;29669;55.706;37.656;2023-03-16T04:11:21;99567.59;;;4.90;nan
43814;BME280;29669;55.706;37.656;2023-03-16T04:13:53;99574.22;;;4.92;nan
43814;BME280;29669;55.706;37.656;2023-03-16T04:16:23;99572.59;;;4.91;nan
43814;BME280;29669;55.706;37.656;2023-03-16T04:19:01;99570.31;;;4.88;nan
43814;BME280;29669;55.706;37.656;2023-03-16T04:21:29;99565.97;;;4.89;nan
43814;BME280;29669;55.706;37.656;2023-03-16T04:23:58;99565.56;;;4.84;nan
43814;BME280;29669;55.706;37.656;2023-03-16T04:26:32;99562.28;;;4.82;nan
43814;BME280;29669;55.706;37.656;2023-03-16T04:29:02;99565.41;;;4.85;nan
43814;BME280;29669;55.706;37.656;2023-03-16T04:31:34;99559.34;;;4.86;nan
43814;BME280;29669;55.706;37.656;2023-03-16T04:34:02;99554.19;;;4.86;nan
43814;BME280;29669;55.706;37.656;2023-03-16T04:36:32;99551.34;;;4.89;nan
43814;BME280;29669;55.706;37.656;2023-03-16T04:39:01;99554.75;;;4.90;nan
43814;BME280;29669;55.706;37.656;2023-03-16T04:41:29;99565.03;;;4.90;nan
43814;BME280;29669;55.706;37.656;2023-03-16T04:44:21;99568.16;;;4.93;nan
43814;BME280;29669;55.706;37.656;2023-03-16T04:46:52;99560.94;;;4.87;nan
43814;BME280;29669;55.706;37.656;2023-03-16T04:49:22;99569.22;;;4.91;nan
43814;BME280;29669;55.706;37.656;2023-03-16T04:51:50;99571.66;;;4.92;nan
43814;BME280;29669;55.706;37.656;2023-03-16T04:54:21;99581.94;;;4.92;nan
43814;BME280;29669;55.706;37.656;2023-03-16T04:56:50;99588.31;;;4.88;nan
43814;BME280;29669;55.706;37.656;2023-03-16T04:59:41;99593.19;;;4.91;nan
43814;BME280;29669;55.706;37.656;2023-03-16T05:02:22;99595.06;;;4.89;nan
43814;BME280;29669;55.706;37.656;2023-03-16T05:04:51;99585.06;;;4.86;nan
43814;BME280;29669;55.706;37.656;2023-03-16T05:07:22;99583.03;;;4.90;nan
43814;BME280;29669;55.706;37.656;2023-03-16T05:09:55;99589.66;;;4.92;nan
43814;BME280;29669;55.706;37.656;2023-03-16T05:12:22;99595.34;;;4.86;nan
43814;BME280;29669;55.706;37.656;2023-03-16T05:14:57;99606.81;;;4.82;nan
43814;BME280;29669;55.706;37.656;2023-03-16T05:17:42;99609.63;;;4.79;nan
43814;BME280;29669;55.706;37.656;2023-03-16T05:20:15;99624.28;;;4.78;nan
43814;BME280;29669;55.706;37.656;2023-03-16T05:22:50;99618.13;;;4.70;nan
43814;BME280;29669;55.706;37.656;2023-03-16T05:25:28;99615.84;;;4.67;nan
43814;BME280;29669;55.706;37.656;2023-03-16T05:28:03;99614.19;;;4.66;nan
43814;BME280;29669;55.706;37.656;2023-03-16T05:30:42;99602.56;;;4.71;nan
43814;BME280;29669;55.706;37.656;2023-03-16T05:33:20;99612.34;;;4.77;nan
43814;BME280;29669;55.706;37.656;2023-03-16T05:35:53;99594.09;;;4.81;nan
43814;BME280;29669;55.706;37.656;2023-03-16T05:38:20;99594.03;;;5.01;nan
43814;BME280;29669;55.706;37.656;2023-03-16T05:40:55;99584.31;;;5.14;nan
43814;BME280;29669;55.706;37.656;2023-03-16T05:43:51;99587.03;;;5.41;nan
43814;BME280;29669;55.706;37.656;2023-03-16T05:46:22;99591.78;;;5.55;nan
43814;BME280;29669;55.706;37.656;2023-03-16T05:48:51;99585.44;;;5.59;nan
43814;BME280;29669;55.706;37.656;2023-03-16T05:51:26;99594.91;;;5.68;nan
43814;BME280;29669;55.706;37.656;2023-03-16T05:53:56;99585.69;;;5.66;nan
43814;BME280;29669;55.706;37.656;2023-03-16T05:56:42;99598.84;;;5.63;nan
43814;BME280;29669;55.706;37.656;2023-03-16T05:59:09;99593.41;;;5.56;nan
43814;BME280;29669;55.706;37.656;2023-03-16T06:01:39;99601.81;;;5.58;nan
43814;BME280;29669;55.706;37.656;2023-03-16T06:04:10;99601.94;;;5.66;nan
43814;BME280;29669;55.706;37.656;2023-03-16T06:06:40;99604.13;;;5.71;nan
43814;BME280;29669;55.706;37.656;2023-03-16T06:09:21;99596.25;;;5.72;nan
43814;BME280;29669;55.706;37.656;2023-03-16T06:11:49;99594.91;;;5.78;nan
43814;BME280;29669;55.706;37.656;2023-03-16T06:14:18;99596.53;;;5.79;nan
43814;BME280;29669;55.706;37.656;2023-03-16T06:16:46;99602.78;;;5.77;nan
43814;BME280;29669;55.706;37.656;2023-03-16T06:19:15;99606.03;;;5.79;nan
43814;BME280;29669;55.706;37.656;2023-03-16T06:21:46;99612.66;;;5.71;nan
43814;BME280;29669;55.706;37.656;2023-03-16T06:24:17;99621.19;;;5.62;nan
43814;BME280;29669;55.706;37.656;2023-03-16T06:26:45;99629.72;;;5.53;nan
43814;BME280;29669;55.706;37.656;2023-03-16T06:29:17;99629.88;;;5.52;nan
43814;BME280;29669;55.706;37.656;2023-03-16T06:31:48;99634.06;;;5.53;nan
43814;BME280;29669;55.706;37.656;2023-03-16T06:34:20;99641.66;;;5.54;nan
43814;BME280;29669;55.706;37.656;2023-03-16T06:36:49;99640.69;;;5.55;nan
43814;BME280;29669;55.706;37.656;2023-03-16T06:39:18;99646.94;;;5.62;nan
43814;BME280;29669;55.706;37.656;2023-03-16T06:41:52;99638.53;;;5.60;nan
43814;BME280;29669;55.706;37.656;2023-03-16T06:44:22;99644.09;;;5.65;nan
43814;BME280;29669;55.706;37.656;2023-03-16T06:46:57;99643.28;;;5.74;nan
43814;BME280;29669;55.706;37.656;2023-03-16T06:49:25;99641.97;;;5.90;nan
43814;BME280;29669;55.706;37.656;2023-03-16T06:51:53;99634.63;;;5.95;nan
43814;BME280;29669;55.706;37.656;2023-03-16T06:54:25;99638.03;;;6.05;nan
43814;BME280;29669;55.706;37.656;2023-03-16T06:56:53;99631.50;;;6.20;nan
43814;BME280;29669;55.706;37.656;2023-03-16T06:59:21;99624.28;;;6.33;nan
43814;BME280;29669;55.706;37.656;2023-03-16T07:01:50;99634.00;;;6.48;nan
43814;BME280;29669;55.706;37.656;2023-03-16T07:04:17;99627.78;;;6.51;nan
43814;BME280;29669;55.706;37.656;2023-03-16T07:06:45;99631.81;;;6.53;nan
43814;BME280;29669;55.706;37.656;2023-03-16T07:09:13;99618.09;;;6.53;nan
43814;BME280;29669;55.706;37.656;2023-03-16T07:11:41;99619.72;;;6.63;nan
43814;BME280;29669;55.706;37.656;2023-03-16T07:14:08;99621.59;;;6.71;nan
43814;BME280;29669;55.706;37.656;2023-03-16T07:16:39;99616.22;;;6.82;nan
43814;BME280;29669;55.706;37.656;2023-03-16T07:19:09;99621.19;;;6.93;nan
43814;BME280;29669;55.706;37.656;2023-03-16T07:21:36;99627.72;;;6.97;nan
43814;BME280;29669;55.706;37.656;2023-03-16T07:24:14;99638.28;;;7.04;nan
43814;BME280;29669;55.706;37.656;2023-03-16T07:26:42;99630.59;;;7.12;nan
43814;BME280;29669;55.706;37.656;2023-03-16T07:29:13;99641.94;;;7.28;nan
43814;BME280;29669;55.706;37.656;2023-03-16T07:31:42;99625.34;;;7.31;nan
43814;BME280;29669;55.706;37.656;2023-03-16T07:34:16;99633.03;;;7.23;nan
43814;BME280;29669;55.706;37.656;2023-03-16T07:36:49;99628.38;;;7.26;nan
43814;BME280;29669;55.706;37.656;2023-03-16T07:39:22;99627.59;;;7.16;nan
43814;BME280;29669;55.706;37.656;2023-03-16T07:41:54;99620.84;;;7.15;nan
43814;BME280;29669;55.706;37.656;2023-03-16T07:44:37;99624.06;;;7.17;nan
43814;BME280;29669;55.706;37.656;2023-03-16T07:47:11;99616.31;;;7.17;nan
43814;BME280;29669;55.706;37.656;2023-03-16T07:49:41;99617.22;;;7.26;nan
43814;BME280;29669;55.706;37.656;2023-03-16T07:52:09;99615.25;;;7.37;nan
43814;BME280;29669;55.706;37.656;2023-03-16T07:54:43;99617.31;;;7.51;nan
43814;BME280;29669;55.706;37.656;2023-03-16T07:57:12;99619.16;;;7.59;nan
43814;BME280;29669;55.706;37.656;2023-03-16T07:59:43;99607.44;;;7.64;nan
43814;BME280;29669;55.706;37.656;2023-03-16T08:02:17;99610.09;;;7.73;nan
43814;BME280;29669;55.706;37.656;2023-03-16T08:04:46;99608.69;;;7.78;nan
43814;BME280;29669;55.706;37.656;2023-03-16T08:07:16;99612.34;;;7.93;nan
43814;BME280;29669;55.706;37.656;2023-03-16T08:09:52;99599.50;;;8.01;nan
43814;BME280;29669;55.706;37.656;2023-03-16T08:12:30;99604.25;;;8.14;nan
43814;BME280;29669;55.706;37.656;2023-03-16T08:15:00;99613.72;;;8.23;nan
43814;BME280;29669;55.706;37.656;2023-03-16T08:17:31;99614.91;;;8.28;nan
43814;BME280;29669;55.706;37.656;2023-03-16T08:20:04;99614.75;;;8.30;nan
43814;BME280;29669;55.706;37.656;2023-03-16T08:22:42;99618.50;;;8.18;nan
43814;BME280;29669;55.706;37.656;2023-03-16T08:25:15;99624.16;;;8.13;nan
43814;BME280;29669;55.706;37.656;2023-03-16T08:27:52;99622.84;;;8.09;nan
43814;BME280;29669;55.706;37.656;2023-03-16T08:30:20;99628.09;;;8.00;nan
43814;BME280;29669;55.706;37.656;2023-03-16T08:33:03;99621.47;;;7.80;nan
43814;BME280;29669;55.706;37.656;2023-03-16T08:35:40;99617.69;;;7.74;nan
43814;BME280;29669;55.706;37.656;2023-03-16T08:38:11;99627.06;;;7.75;nan
43814;BME280;29669;55.706;37.656;2023-03-16T08:40:43;99630.91;;;7.53;nan
43814;BME280;29669;55.706;37.656;2023-03-16T08:43:17;99633.69;;;7.42;nan
43814;BME280;29669;55.706;37.656;2023-03-16T08:45:47;99631.56;;;7.38;nan
43814;BME280;29669;55.706;37.656;2023-03-16T08:48:17;99623.44;;;7.33;nan
43814;BME280;29669;55.706;37.656;2023-03-16T08:50:50;99634.28;;;7.36;nan
43814;BME280;29669;55.706;37.656;2023-03-16T08:53:23;99612.81;;;7.36;nan
43814;BME280;29669;55.706;37.656;2023-03-16T08:56:02;99625.59;;;7.37;nan
43814;BME280;29669;55.706;37.656;2023-03-16T08:58:32;99629.25;;;7.35;nan
43814;BME280;29669;55.706;37.656;2023-03-16T09:01:01;99622.59;;;7.32;nan
43814;BME280;29669;55.706;37.656;2023-03-16T09:03:33;99628.38;;;7.26;nan
43814;BME280;29669;55.706;37.656;2023-03-16T09:06:06;99629.97;;;7.27;nan
43814;BME280;29669;55.706;37.656;2023-03-16T09:08:36;99635.72;;;7.21;nan
43814;BME280;29669;55.706;37.656;2023-03-16T09:11:10;99629.53;;;7.14;nan
43814;BME280;29669;55.706;37.656;2023-03-16T09:13:42;99631.44;;;7.12;nan
43814;BME280;29669;55.706;37.656;2023-03-16T09:16:14;99634.38;;;7.17;nan
43814;BME280;29669;55.706;37.656;2023-03-16T09:18:45;99630.03;;;7.18;nan
43814;BME280;29669;55.706;37.656;2023-03-16T09:21:19;99633.28;;;7.20;nan
43814;BME280;29669;55.706;37.656;2023-03-16T09:23:47;99635.97;;;7.28;nan
43814;BME280;29669;55.706;37.656;2023-03-16T09:26:17;99627.19;;;7.38;nan
43814;BME280;29669;55.706;37.656;2023-03-16T09:28:47;99630.16;;;7.43;nan
43814;BME280;29669;55.706;37.656;2023-03-16T09:31:18;99624.03;;;7.44;nan
43814;BME280;29669;55.706;37.656;2023-03-16T09:33:48;99629.28;;;7.52;nan
43814;BME280;29669;55.706;37.656;2023-03-16T09:36:16;99634.97;;;7.56;nan
43814;BME280;29669;55.706;37.656;2023-03-16T09:38:44;99631.41;;;7.57;nan
43814;BME280;29669;55.706;37.656;2023-03-16T09:47:15;99630.28;;;7.42;nan
43814;BME280;29669;55.706;37.656;2023-03-16T09:49:46;99620.88;;;7.50;nan
43814;BME280;29669;55.706;37.656;2023-03-16T09:52:45;99617.75;;;7.64;nan
43814;BME280;29669;55.706;37.656;2023-03-16T09:55:31;99614.00;;;7.77;nan
43814;BME280;29669;55.706;37.656;2023-03-16T09:58:00;99616.41;;;7.96;nan
43814;BME280;29669;55.706;37.656;2023-03-16T10:00:37;99618.84;;;8.15;nan
43814;BME280;29669;55.706;37.656;2023-03-16T10:03:29;99615.34;;;8.24;nan
43814;BME280;29669;55.706;37.656;2023-03-16T10:06:03;99613.56;;;8.42;nan
43814;BME280;29669;55.706;37.656;2023-03-16T10:08:38;99622.00;;;8.52;nan
43814;BME280;29669;55.706;37.656;2023-03-16T10:16:49;99631.28;;;8.63;nan
43814;BME280;29669;55.706;37.656;2023-03-16T10:19:26;99626.50;;;8.50;nan
43814;BME280;29669;55.706;37.656;2023-03-16T10:22:08;99635.19;;;8.23;nan
43814;BME280;29669;55.706;37.656;2023-03-16T10:27:34;99637.84;;;7.71;nan
43814;BME280;29669;55.706;37.656;2023-03-16T10:30:18;99638.16;;;7.68;nan
43814;BME280;29669;55.706;37.656;2023-03-16T10:32:47;99632.31;;;7.66;nan
43814;BME280;29669;55.706;37.656;2023-03-16T10:37:47;99632.75;;;7.79;nan
43814;BME280;29669;55.706;37.656;2023-03-16T10:40:15;99633.72;;;7.78;nan
43814;BME280;29669;55.706;37.656;2023-03-16T10:42:46;99636.81;;;7.81;nan
43814;BME280;29669;55.706;37.656;2023-03-16T10:45:29;99638.19;;;7.93;nan
43814;BME280;29669;55.706;37.656;2023-03-16T10:48:12;99637.31;;;8.02;nan
43814;BME280;29669;55.706;37.656;2023-03-16T10:50:48;99627.50;;;8.06;nan
43814;BME280;29669;55.706;37.656;2023-03-16T10:53:27;99635.81;;;8.17;nan
43814;BME280;29669;55.706;37.656;2023-03-16T10:56:00;99638.34;;;8.27;nan
43814;BME280;29669;55.706;37.656;2023-03-16T10:58:33;99634.69;;;8.20;nan
43814;BME280;29669;55.706;37.656;2023-03-16T11:01:09;99640.47;;;8.14;nan
43814;BME280;29669;55.706;37.656;2023-03-16T11:03:39;99637.53;;;8.09;nan
43814;BME280;29669;55.706;37.656;2023-03-16T11:06:19;99628.91;;;8.00;nan
43814;BME280;29669;55.706;37.656;2023-03-16T11:08:47;99639.09;;;7.84;nan
43814;BME280;29669;55.706;37.656;2023-03-16T11:11:17;99636.31;;;7.60;nan
43814;BME280;29669;55.706;37.656;2023-03-16T11:13:47;99632.28;;;7.48;nan
43814;BME280;29669;55.706;37.656;2023-03-16T11:21:53;99637.03;;;7.52;nan
43814;BME280;29669;55.706;37.656;2023-03-16T11:24:51;99636.31;;;7.60;nan
43814;BME280;29669;55.706;37.656;2023-03-16T11:32:32;99641.09;;;7.55;nan
43814;BME280;29669;55.706;37.656;2023-03-16T11:35:02;99643.25;;;7.32;nan
43814;BME280;29669;55.706;37.656;2023-03-16T11:43:26;99653.72;;;7.13;nan
43814;BME280;29669;55.706;37.656;2023-03-16T11:48:45;99659.78;;;6.85;nan
43814;BME280;29669;55.706;37.656;2023-03-16T11:51:42;99656.97;;;6.79;nan
43814;BME280;29669;55.706;37.656;2023-03-16T11:54:34;99663.91;;;6.78;nan
43814;BME280;29669;55.706;37.656;2023-03-16T12:05:55;99673.28;;;7.06;nan
43814;BME280;29669;55.706;37.656;2023-03-16T12:11:09;99686.06;;;7.08;nan
43814;BME280;29669;55.706;37.656;2023-03-16T12:16:28;99675.59;;;7.09;nan
43814;BME280;29669;55.706;37.656;2023-03-16T12:19:20;99679.78;;;7.10;nan
43814;BME280;29669;55.706;37.656;2023-03-16T12:22:01;99672.19;;;7.09;nan
43814;BME280;29669;55.706;37.656;2023-03-16T12:24:39;99675.59;;;7.09;nan
43814;BME280;29669;55.706;37.656;2023-03-16T12:27:20;99668.53;;;7.11;nan
43814;BME280;29669;55.706;37.656;2023-03-16T12:38:21;99679.09;;;6.91;nan
43814;BME280;29669;55.706;37.656;2023-03-16T12:48:57;99693.78;;;6.71;nan
43814;BME280;29669;55.706;37.656;2023-03-16T12:51:34;99693.66;;;6.73;nan
43814;BME280;29669;55.706;37.656;2023-03-16T12:54:04;99690.00;;;6.75;nan
43814;BME280;29669;55.706;37.656;2023-03-16T12:56:36;99689.69;;;6.78;nan
43814;BME280;29669;55.706;37.656;2023-03-16T12:59:16;99703.28;;;6.80;nan
43814;BME280;29669;55.706;37.656;2023-03-16T13:01:57;99693.38;;;6.76;nan
43814;BME280;29669;55.706;37.656;2023-03-16T13:04:38;99699.78;;;6.72;nan
43814;BME280;29669;55.706;37.656;2023-03-16T13:07:19;99696.53;;;6.70;nan
43814;BME280;29669;55.706;37.656;2023-03-16T13:09:53;99693.53;;;6.64;nan
43814;BME280;29669;55.706;37.656;2023-03-16T13:12:33;99696.63;;;6.68;nan
43814;BME280;29669;55.706;37.656;2023-03-16T13:17:49;99698.31;;;6.59;nan
43814;BME280;29669;55.706;37.656;2023-03-16T13:25:57;99704.63;;;6.19;nan
43814;BME280;29669;55.706;37.656;2023-03-16T13:29:23;99700.78;;;6.04;nan
43814;BME280;29669;55.706;37.656;2023-03-16T13:31:56;99695.09;;;6.00;nan
43814;BME280;29669;55.706;37.656;2023-03-16T13:34:59;99694.56;;;6.06;nan
43814;BME280;29669;55.706;37.656;2023-03-16T13:37:32;99705.28;;;6.02;nan
43814;BME280;29669;55.706;37.656;2023-03-16T13:40:01;99709.09;;;6.07;nan
43814;BME280;29669;55.706;37.656;2023-03-16T13:42:33;99697.00;;;6.08;nan
43814;BME280;29669;55.706;37.656;2023-03-16T13:45:17;99689.41;;;6.06;nan
43814;BME280;29669;55.706;37.656;2023-03-16T13:47:47;99684.25;;;6.06;nan
43814;BME280;29669;55.706;37.656;2023-03-16T13:50:15;99689.00;;;6.11;nan
43814;BME280;29669;55.706;37.656;2023-03-16T13:52:54;99687.91;;;6.13;nan
43814;BME280;29669;55.706;37.656;2023-03-16T13:55:34;99690.09;;;6.18;nan
43814;BME280;29669;55.706;37.656;2023-03-16T13:58:03;99684.00;;;6.19;nan
43814;BME280;29669;55.706;37.656;2023-03-16T14:00:36;99688.19;;;6.20;nan
43814;BME280;29669;55.706;37.656;2023-03-16T14:03:13;99690.38;;;6.24;nan
43814;BME280;29669;55.706;37.656;2023-03-16T14:05:43;99691.84;;;6.27;nan
43814;BME280;29669;55.706;37.656;2023-03-16T14:08:20;99687.34;;;6.29;nan
43814;BME280;29669;55.706;37.656;2023-03-16T14:10:52;99686.28;;;6.31;nan
43814;BME280;29669;55.706;37.656;2023-03-16T14:16:02;99685.88;;;6.26;nan
43814;BME280;29669;55.706;37.656;2023-03-16T14:18:40;99685.75;;;6.18;nan
43814;BME280;29669;55.706;37.656;2023-03-16T14:21:14;99689.84;;;6.11;nan
43814;BME280;29669;55.706;37.656;2023-03-16T14:23:44;99686.28;;;6.03;nan
43814;BME280;29669;55.706;37.656;2023-03-16T14:26:16;99684.00;;;6.00;nan
43814;BME280;29669;55.706;37.656;2023-03-16T14:29:07;99700.81;;;5.94;nan
43814;BME280;29669;55.706;37.656;2023-03-16T14:31:41;99698.78;;;5.88;nan
43814;BME280;29669;55.706;37.656;2023-03-16T14:34:28;99688.88;;;5.93;nan
43814;BME280;29669;55.706;37.656;2023-03-16T14:39:37;99700.66;;;5.86;nan
43814;BME280;29669;55.706;37.656;2023-03-16T14:42:18;99703.94;;;5.88;nan
43814;BME280;29669;55.706;37.656;2023-03-16T14:44:47;99702.13;;;5.89;nan
43814;BME280;29669;55.706;37.656;2023-03-16T14:47:21;99698.88;;;5.96;nan
43814;BME280;29669;55.706;37.656;2023-03-16T14:49:51;99707.44;;;5.97;nan
43814;BME280;29669;55.706;37.656;2023-03-16T14:52:23;99713.41;;;5.97;nan
43814;BME280;29669;55.706;37.656;2023-03-16T14:54:53;99709.34;;;5.95;nan
43814;BME280;29669;55.706;37.656;2023-03-16T14:57:21;99714.09;;;5.99;nan
43814;BME280;29669;55.706;37.656;2023-03-16T14:59:55;99719.78;;;6.03;nan
43814;BME280;29669;55.706;37.656;2023-03-16T15:02:26;99725.63;;;6.05;nan
43814;BME280;29669;55.706;37.656;2023-03-16T15:04:56;99724.81;;;6.04;nan
43814;BME280;29669;55.706;37.656;2023-03-16T15:07:27;99720.47;;;6.05;nan
43814;BME280;29669;55.706;37.656;2023-03-16T15:12:42;99726.00;;;6.00;nan
43814;BME280;29669;55.706;37.656;2023-03-16T15:15:19;99735.38;;;5.92;nan
43814;BME280;29669;55.706;37.656;2023-03-16T15:17:51;99737.81;;;5.84;nan
43814;BME280;29669;55.706;37.656;2023-03-16T15:20:21;99737.63;;;5.75;nan
43814;BME280;29669;55.706;37.656;2023-03-16T15:22:52;99737.22;;;5.70;nan
43814;BME280;29669;55.706;37.656;2023-03-16T15:25:41;99739.78;;;5.70;nan